createdAt,value
2023-05-15T00:00:54.717Z,85.50
2023-05-15T00:03:52.367Z,85.47
2023-05-15T00:06:50.189Z,85.47
2023-05-15T00:09:47.723Z,85.48
2023-05-15T00:12:45.332Z,85.45
2023-05-15T00:15:42.790Z,85.47
2023-05-15T00:18:41.178Z,85.47
2023-05-15T00:21:38.791Z,85.45
2023-05-15T00:24:36.537Z,85.43
2023-05-15T00:27:34.142Z,85.41
2023-05-15T00:30:31.601Z,85.40
2023-05-15T00:33:29.126Z,85.43
2023-05-15T00:36:26.615Z,85.49
2023-05-15T00:39:24.361Z,85.47
2023-05-15T00:42:21.820Z,85.47
2023-05-15T00:45:19.592Z,85.49
2023-05-15T00:48:17.202Z,85.50
2023-05-15T00:51:14.633Z,85.57
2023-05-15T00:54:12.375Z,85.59
2023-05-15T00:57:09.766Z,85.61
2023-05-15T01:00:10.877Z,85.63
2023-05-15T01:03:08.414Z,85.68
2023-05-15T01:06:06.157Z,85.69
2023-05-15T01:09:04.590Z,85.70
2023-05-15T01:12:02.143Z,85.70
2023-05-15T01:15:00.543Z,85.73
2023-05-15T01:17:58.026Z,85.78
2023-05-15T01:20:55.850Z,85.72
2023-05-15T01:23:53.494Z,85.72
2023-05-15T01:26:51.116Z,85.75
2023-05-15T01:29:48.743Z,85.73
2023-05-15T01:32:46.206Z,85.78
2023-05-15T01:35:44.063Z,85.80
2023-05-15T01:38:41.519Z,85.80
2023-05-15T01:41:39.151Z,85.80
2023-05-15T01:44:36.606Z,85.78
2023-05-15T01:47:34.288Z,85.80
2023-05-15T01:50:31.990Z,85.80
2023-05-15T01:53:29.432Z,85.79
2023-05-15T01:56:27.181Z,85.80
2023-05-15T01:59:24.630Z,85.80
2023-05-15T02:02:22.356Z,85.80
2023-05-15T02:05:19.769Z,85.84
2023-05-15T02:08:17.570Z,85.82
2023-05-15T02:11:15.311Z,85.82
2023-05-15T02:14:12.719Z,85.82
2023-05-15T02:17:10.461Z,85.84
2023-05-15T02:20:08.629Z,85.81
2023-05-15T02:23:06.326Z,85.88
2023-05-15T02:26:04.613Z,85.87
2023-05-15T02:29:02.290Z,85.86
2023-05-15T02:31:59.731Z,85.85
2023-05-15T02:34:57.585Z,85.84
2023-05-15T02:37:54.987Z,85.90
2023-05-15T02:40:52.701Z,85.82
2023-05-15T02:43:50.338Z,85.82
2023-05-15T02:46:47.739Z,85.82
2023-05-15T02:49:45.354Z,85.81
2023-05-15T02:52:42.812Z,85.84
2023-05-15T02:55:40.608Z,85.89
2023-05-15T02:58:38.054Z,85.85
2023-05-15T03:01:35.874Z,85.82
2023-05-15T03:04:33.326Z,85.82
2023-05-15T03:07:30.978Z,85.89
2023-05-15T03:10:28.720Z,85.83
2023-05-15T03:13:26.187Z,85.80
2023-05-15T03:16:23.967Z,85.78
2023-05-15T03:19:21.413Z,85.80
2023-05-15T03:22:19.014Z,85.80
2023-05-15T03:25:16.482Z,85.80
2023-05-15T03:28:14.127Z,85.80
2023-05-15T03:31:11.640Z,85.79
2023-05-15T03:34:09.396Z,85.75
2023-05-15T03:37:07.214Z,85.75
2023-05-15T03:40:04.884Z,85.72
2023-05-15T03:43:02.635Z,85.70
2023-05-15T03:46:00.075Z,85.70
2023-05-15T03:48:57.744Z,85.70
2023-05-15T03:51:55.218Z,85.73
2023-05-15T03:54:52.982Z,85.80
2023-05-15T03:57:50.553Z,85.79
2023-05-15T04:00:48.003Z,85.74
2023-05-15T04:03:45.664Z,85.70
2023-05-15T04:06:43.067Z,85.70
2023-05-15T04:09:40.794Z,85.71
2023-05-15T04:12:38.233Z,85.70
2023-05-15T04:15:36.023Z,85.64
2023-05-15T04:18:33.495Z,85.51
2023-05-15T04:21:33.321Z,85.32
2023-05-15T04:24:30.895Z,85.12
2023-05-15T04:27:28.654Z,84.95
2023-05-15T04:30:26.290Z,84.68
2023-05-15T04:33:23.788Z,84.53
2023-05-15T04:36:22.040Z,84.32
2023-05-15T04:39:19.443Z,84.25
2023-05-15T04:42:17.037Z,84.15
2023-05-15T04:45:14.863Z,84.10
2023-05-15T04:48:12.458Z,84.07
2023-05-15T04:51:10.156Z,84.13
2023-05-15T04:54:07.568Z,84.12
2023-05-15T04:57:05.315Z,84.01
2023-05-15T05:00:02.788Z,84.02
2023-05-15T05:03:00.417Z,83.95
2023-05-15T05:05:58.092Z,83.84
2023-05-15T05:08:55.836Z,83.69
2023-05-15T05:11:53.511Z,83.60
2023-05-15T05:14:50.965Z,83.61
2023-05-15T05:17:49.434Z,83.32
2023-05-15T05:20:47.030Z,83.05
2023-05-15T05:23:44.776Z,82.94
2023-05-15T05:26:42.199Z,82.80
2023-05-15T05:29:40.402Z,82.65
2023-05-15T05:32:38.120Z,82.51
2023-05-15T05:35:35.624Z,82.32
2023-05-15T05:38:33.576Z,82.21
2023-05-15T05:41:31.000Z,82.00
2023-05-15T05:44:28.730Z,81.78
2023-05-15T05:47:26.235Z,81.50
2023-05-15T05:50:23.876Z,81.46
2023-05-15T05:53:24.552Z,81.34
2023-05-15T05:56:22.776Z,81.13
2023-05-15T05:59:20.355Z,80.93
2023-05-15T06:02:17.829Z,80.88
2023-05-15T06:05:15.832Z,80.57
2023-05-15T06:08:13.361Z,80.32
2023-05-15T06:11:11.102Z,80.12
2023-05-15T06:14:09.595Z,80.13
2023-05-15T06:17:07.425Z,80.14
2023-05-15T06:20:07.382Z,80.10
2023-05-15T06:23:04.785Z,79.91
2023-05-15T06:26:03.497Z,79.70
2023-05-15T06:29:00.942Z,79.81
2023-05-15T06:31:58.592Z,79.70
2023-05-15T06:34:56.067Z,79.69
2023-05-15T06:37:56.477Z,79.25
2023-05-15T06:40:55.201Z,79.18
2023-05-15T06:43:52.901Z,78.93
2023-05-15T06:46:51.201Z,78.94
2023-05-15T06:49:48.718Z,78.31
2023-05-15T06:52:48.137Z,78.02
2023-05-15T06:55:45.589Z,77.63
2023-05-15T06:58:43.455Z,77.45
2023-05-15T07:01:40.916Z,77.28
2023-05-15T07:04:38.607Z,77.23
2023-05-15T07:07:36.090Z,76.87
2023-05-15T07:10:33.817Z,76.53
2023-05-15T07:13:31.895Z,76.07
2023-05-15T07:16:29.328Z,75.37
2023-05-15T07:19:27.193Z,74.92
2023-05-15T07:22:24.649Z,74.42
2023-05-15T07:25:22.848Z,73.78
2023-05-15T07:28:20.561Z,73.33
2023-05-15T07:31:18.256Z,72.50
2023-05-15T07:34:15.708Z,72.34
2023-05-15T07:37:14.896Z,72.07
2023-05-15T07:43:33.570Z,72.03
2023-05-15T07:46:34.450Z,72.17
2023-05-15T07:49:31.882Z,71.96
2023-05-15T07:52:29.616Z,71.80
2023-05-15T07:55:27.187Z,71.68
2023-05-15T07:58:25.113Z,71.32
2023-05-15T08:01:22.528Z,70.95
2023-05-15T08:04:22.164Z,70.05
2023-05-15T08:07:21.842Z,69.80
2023-05-15T08:10:19.256Z,69.72
2023-05-15T08:13:17.440Z,69.77
2023-05-15T08:16:14.926Z,69.53
2023-05-15T08:19:12.551Z,69.80
2023-05-15T08:22:10.019Z,69.46
2023-05-15T08:25:09.710Z,69.09
2023-05-15T08:28:07.917Z,68.85
2023-05-15T08:31:05.376Z,68.20
2023-05-15T08:34:03.667Z,67.67
2023-05-15T08:37:01.101Z,67.32
2023-05-15T08:39:58.722Z,66.86
2023-05-15T08:42:56.272Z,66.23
2023-05-15T08:45:54.007Z,65.79
2023-05-15T08:48:51.488Z,65.78
2023-05-15T08:51:49.573Z,65.44
2023-05-15T08:54:48.705Z,64.82
2023-05-15T08:57:46.282Z,64.44
2023-05-15T09:00:43.957Z,64.11
2023-05-15T09:03:41.420Z,64.07
2023-05-15T09:06:38.997Z,63.95
2023-05-15T09:09:36.580Z,63.66
2023-05-15T09:12:34.340Z,63.36
2023-05-15T09:15:32.494Z,62.87
2023-05-15T09:18:29.896Z,62.15
2023-05-15T09:21:27.634Z,62.05
2023-05-15T09:24:25.347Z,62.44
2023-05-15T09:27:23.056Z,62.39
2023-05-15T09:30:21.381Z,62.83
2023-05-15T09:33:19.123Z,63.02
2023-05-15T09:36:16.793Z,63.37
2023-05-15T09:39:14.260Z,63.26
2023-05-15T09:42:11.932Z,63.13
2023-05-15T09:45:09.406Z,62.87
2023-05-15T09:48:07.323Z,62.85
2023-05-15T09:51:07.833Z,62.28
2023-05-15T09:54:05.534Z,61.42
2023-05-15T09:57:03.283Z,60.71
2023-05-15T10:00:00.714Z,59.69
2023-05-15T10:02:58.321Z,59.03
2023-05-15T10:05:55.865Z,58.04
2023-05-15T10:08:53.872Z,57.53
2023-05-15T10:11:51.655Z,57.13
2023-05-15T10:14:49.154Z,55.83
2023-05-15T10:17:46.909Z,55.60
2023-05-15T10:20:44.427Z,55.31
2023-05-15T10:23:42.178Z,54.82
2023-05-15T10:26:39.626Z,54.86
2023-05-15T10:29:37.252Z,55.33
2023-05-15T10:32:35.023Z,55.40
2023-05-15T10:35:32.625Z,55.50
2023-05-15T10:38:31.958Z,55.63
2023-05-15T10:41:29.414Z,55.26
2023-05-15T10:44:27.152Z,55.86
2023-05-15T10:47:24.985Z,55.72
2023-05-15T10:50:22.466Z,55.41
2023-05-15T10:53:20.245Z,55.37
2023-05-15T10:56:17.737Z,55.00
2023-05-15T10:59:15.455Z,54.72
2023-05-15T11:02:12.896Z,54.47
2023-05-15T11:05:13.363Z,53.25
2023-05-15T11:08:10.812Z,52.83
2023-05-15T11:11:08.592Z,51.85
2023-05-15T11:14:06.044Z,51.90
2023-05-15T11:17:05.091Z,51.13
2023-05-15T11:20:03.836Z,49.38
2023-05-15T11:23:01.279Z,49.09
2023-05-15T11:25:59.007Z,48.46
2023-05-15T11:28:56.419Z,47.77
2023-05-15T11:31:54.480Z,46.86
2023-05-15T11:34:51.857Z,46.68
2023-05-15T11:37:49.933Z,46.38
2023-05-15T11:40:47.722Z,46.22
2023-05-15T11:43:45.124Z,45.91
2023-05-15T11:46:43.859Z,45.72
2023-05-15T11:49:41.266Z,45.35
2023-05-15T11:52:38.899Z,45.53
2023-05-15T11:55:38.070Z,45.78
2023-05-15T11:58:35.488Z,45.47
2023-05-15T12:01:33.028Z,44.72
2023-05-15T12:04:31.980Z,44.55
2023-05-15T12:07:29.749Z,44.26
2023-05-15T12:10:27.310Z,44.18
2023-05-15T12:13:25.141Z,44.18
2023-05-15T12:16:22.972Z,43.51
2023-05-15T12:19:20.451Z,43.82
2023-05-15T12:22:19.331Z,43.33
2023-05-15T12:25:17.723Z,43.36
2023-05-15T12:28:17.448Z,42.70
2023-05-15T12:31:14.900Z,42.74
2023-05-15T12:34:12.742Z,42.76
2023-05-15T12:37:10.321Z,42.84
2023-05-15T12:40:10.388Z,43.19
2023-05-15T12:43:10.996Z,42.51
2023-05-15T12:46:08.502Z,42.47
2023-05-15T12:49:06.172Z,42.45
2023-05-15T12:52:03.560Z,42.74
2023-05-15T12:55:01.279Z,43.26
2023-05-15T12:57:59.069Z,42.94
2023-05-15T13:00:57.104Z,43.25
2023-05-15T13:03:55.007Z,43.08
2023-05-15T13:06:52.776Z,42.72
2023-05-15T13:09:52.764Z,42.81
2023-05-15T13:12:50.176Z,43.19
2023-05-15T13:15:47.805Z,42.63
2023-05-15T13:18:45.513Z,42.39
2023-05-15T13:21:44.006Z,42.21
2023-05-15T13:24:42.273Z,41.98
2023-05-15T13:27:39.782Z,41.70
2023-05-15T13:30:39.299Z,41.19
2023-05-15T13:33:37.614Z,41.62
2023-05-15T13:36:35.226Z,41.59
2023-05-15T13:39:32.919Z,41.56
2023-05-15T13:42:30.349Z,41.64
2023-05-15T13:45:28.046Z,41.76
2023-05-15T13:48:25.850Z,41.27
2023-05-15T13:51:23.572Z,41.08
2023-05-15T13:54:20.962Z,41.26
2023-05-15T13:57:18.701Z,41.23
2023-05-15T14:00:16.675Z,41.28
2023-05-15T14:03:15.252Z,41.69
2023-05-15T14:06:13.626Z,41.83
2023-05-15T14:09:11.169Z,41.74
2023-05-15T14:12:10.098Z,41.65
2023-05-15T14:15:07.551Z,41.92
2023-05-15T14:18:05.283Z,41.71
2023-05-15T14:21:02.749Z,41.73
2023-05-15T14:24:00.663Z,41.82
2023-05-15T14:26:58.138Z,41.63
2023-05-15T14:29:57.119Z,41.81
2023-05-15T14:32:55.038Z,41.76
2023-05-15T14:35:52.532Z,42.10
2023-05-15T14:38:50.217Z,42.24
2023-05-15T14:41:47.814Z,42.17
2023-05-15T14:44:45.404Z,42.35
2023-05-15T14:47:43.176Z,42.44
2023-05-15T14:50:40.973Z,42.39
2023-05-15T14:53:38.673Z,42.87
2023-05-15T14:56:36.400Z,43.16
2023-05-15T14:59:34.071Z,43.31
2023-05-15T15:02:31.586Z,43.71
2023-05-15T15:05:29.440Z,43.85
2023-05-15T15:08:26.895Z,44.13
2023-05-15T15:11:24.532Z,44.14
2023-05-15T15:14:21.946Z,44.28
2023-05-15T15:17:19.657Z,44.32
2023-05-15T15:20:17.105Z,43.92
2023-05-15T15:23:16.503Z,44.09
2023-05-15T15:26:13.901Z,44.08
2023-05-15T15:29:11.832Z,44.01
2023-05-15T15:32:09.602Z,44.38
2023-05-15T15:35:07.277Z,44.00
2023-05-15T15:38:07.515Z,44.02
2023-05-15T15:41:05.694Z,44.28
2023-05-15T15:44:03.444Z,44.79
2023-05-15T15:47:01.520Z,45.08
2023-05-15T15:49:58.919Z,45.10
2023-05-15T15:52:56.669Z,45.10
2023-05-15T15:55:54.337Z,45.33
2023-05-15T15:58:52.068Z,45.60
2023-05-15T16:01:49.609Z,45.80
2023-05-15T16:04:47.409Z,45.93
2023-05-15T16:07:44.954Z,46.12
2023-05-15T16:10:42.549Z,46.56
2023-05-15T16:13:41.161Z,46.97
2023-05-15T16:16:38.918Z,47.13
2023-05-15T16:19:36.592Z,47.42
2023-05-15T16:22:34.031Z,47.73
2023-05-15T16:25:31.838Z,48.09
2023-05-15T16:28:29.294Z,48.22
2023-05-15T16:31:27.519Z,48.49
2023-05-15T16:34:25.482Z,49.00
2023-05-15T16:37:23.143Z,49.07
2023-05-15T16:40:21.017Z,49.17
2023-05-15T16:43:18.422Z,49.29
2023-05-15T16:46:16.599Z,49.59
2023-05-15T16:49:14.090Z,49.75
2023-05-15T16:52:12.041Z,50.12
2023-05-15T16:55:09.600Z,50.40
2023-05-15T16:58:07.320Z,50.42
2023-05-15T17:01:06.519Z,50.72
2023-05-15T17:04:04.101Z,51.06
2023-05-15T17:07:02.203Z,51.14
2023-05-15T17:09:59.693Z,51.26
2023-05-15T17:12:57.890Z,51.32
2023-05-15T17:15:55.377Z,51.45
2023-05-15T17:18:53.562Z,51.58
2023-05-15T17:21:51.012Z,51.93
2023-05-15T17:24:50.685Z,52.19
2023-05-15T17:27:49.598Z,52.64
2023-05-15T17:30:47.015Z,52.74
2023-05-15T17:33:45.675Z,52.97
2023-05-15T17:36:44.822Z,53.36
2023-05-15T17:39:42.465Z,53.78
2023-05-15T17:42:40.075Z,54.17
2023-05-15T17:45:37.595Z,54.37
2023-05-15T17:48:36.129Z,54.58
2023-05-15T17:51:33.565Z,54.55
2023-05-15T17:54:32.068Z,54.80
2023-05-15T17:57:29.629Z,55.12
2023-05-15T18:00:27.076Z,55.28
2023-05-15T18:03:24.803Z,55.63
2023-05-15T18:06:22.421Z,55.88
2023-05-15T18:09:23.873Z,55.95
2023-05-15T18:12:21.652Z,56.17
2023-05-15T18:15:20.784Z,56.44
2023-05-15T18:18:18.405Z,56.67
2023-05-15T18:21:16.210Z,56.74
2023-05-15T18:24:14.542Z,56.94
2023-05-15T18:27:11.968Z,57.18
2023-05-15T18:30:09.659Z,57.34
2023-05-15T18:33:07.183Z,57.51
2023-05-15T18:36:06.696Z,57.78
2023-05-15T18:39:05.139Z,58.02
2023-05-15T18:42:04.115Z,58.22
2023-05-15T18:45:02.319Z,58.52
2023-05-15T18:48:00.271Z,58.79
2023-05-15T18:50:59.199Z,59.07
2023-05-15T18:53:57.108Z,59.27
2023-05-15T18:56:54.906Z,59.47
2023-05-15T18:59:52.908Z,59.73
2023-05-15T19:02:50.637Z,59.93
2023-05-15T19:05:48.280Z,60.15
2023-05-15T19:08:45.944Z,60.38
2023-05-15T19:11:45.291Z,60.55
2023-05-15T19:14:42.955Z,60.69
2023-05-15T19:17:41.246Z,60.89
2023-05-15T19:20:38.737Z,61.11
2023-05-15T19:23:36.437Z,61.32
2023-05-15T19:26:34.074Z,61.53
2023-05-15T19:29:32.498Z,61.76
2023-05-15T19:32:30.417Z,62.07
2023-05-15T19:35:28.106Z,62.31
2023-05-15T19:38:26.526Z,62.61
2023-05-15T19:41:23.974Z,62.85
2023-05-15T19:44:21.808Z,63.13
2023-05-15T19:47:19.418Z,63.39
2023-05-15T19:50:17.778Z,63.59
2023-05-15T19:53:15.196Z,63.85
2023-05-15T19:56:14.021Z,64.07
2023-05-15T19:59:11.760Z,64.28
2023-05-15T20:02:11.187Z,64.56
2023-05-15T20:05:09.525Z,64.80
2023-05-15T20:08:07.032Z,64.96
2023-05-15T20:11:04.809Z,65.15
2023-05-15T20:14:02.282Z,65.32
2023-05-15T20:17:00.087Z,65.43
2023-05-15T20:19:59.159Z,65.55
2023-05-15T20:22:56.912Z,65.72
2023-05-15T20:25:54.539Z,65.89
2023-05-15T20:28:52.260Z,66.03
2023-05-15T20:31:51.819Z,66.18
2023-05-15T20:34:49.349Z,66.36
2023-05-15T20:37:47.267Z,66.53
2023-05-15T20:40:44.680Z,66.64
2023-05-15T20:43:42.510Z,66.74
2023-05-15T20:46:40.169Z,66.85
2023-05-15T20:49:37.585Z,66.98
2023-05-15T20:52:35.292Z,67.08
2023-05-15T20:55:32.686Z,67.22
2023-05-15T20:58:30.419Z,67.32
2023-05-15T21:01:27.920Z,67.41
2023-05-15T21:04:25.940Z,67.57
2023-05-15T21:07:23.304Z,67.68
2023-05-15T21:10:21.105Z,67.85
2023-05-15T21:13:18.501Z,67.99
2023-05-15T21:16:16.145Z,68.12
2023-05-15T21:19:14.201Z,68.21
2023-05-15T21:22:11.605Z,68.32
2023-05-15T21:25:09.309Z,68.46
2023-05-15T21:28:07.702Z,68.53
2023-05-15T21:31:06.081Z,68.64
2023-05-15T21:34:03.572Z,68.79
2023-05-15T21:37:01.157Z,68.94
2023-05-15T21:39:58.856Z,69.03
2023-05-15T21:42:56.255Z,69.12
2023-05-15T21:45:53.963Z,69.22
2023-05-15T21:48:51.361Z,69.33
2023-05-15T21:51:49.065Z,69.40
2023-05-15T21:54:46.496Z,69.49
2023-05-15T21:57:44.272Z,69.60
2023-05-15T22:00:41.964Z,69.66
2023-05-15T22:03:39.541Z,69.78
2023-05-15T22:06:37.430Z,69.85
2023-05-15T22:09:35.056Z,69.95
2023-05-15T22:12:33.590Z,70.03
2023-05-15T22:15:31.054Z,70.13
2023-05-15T22:18:29.158Z,70.24
2023-05-15T22:21:27.062Z,70.27
2023-05-15T22:24:24.465Z,70.39
2023-05-15T22:27:22.198Z,70.46
2023-05-15T22:30:19.632Z,70.51
2023-05-15T22:33:17.312Z,70.57
2023-05-15T22:36:14.692Z,70.60
2023-05-15T22:39:12.569Z,70.63
2023-05-15T22:42:12.669Z,70.59
2023-05-15T22:45:10.335Z,70.50
2023-05-15T22:48:08.035Z,70.40
2023-05-15T22:51:06.909Z,70.24
2023-05-15T22:54:06.678Z,70.17
2023-05-15T22:57:04.072Z,70.12
2023-05-15T23:00:02.023Z,70.05
2023-05-15T23:02:59.854Z,69.96
2023-05-15T23:05:57.329Z,69.90
2023-05-15T23:08:55.146Z,69.88
2023-05-15T23:11:52.759Z,69.83
2023-05-15T23:14:50.350Z,69.74
2023-05-15T23:17:47.856Z,69.70
2023-05-15T23:20:46.214Z,69.68
2023-05-15T23:23:44.809Z,69.63
2023-05-15T23:26:42.422Z,69.64
2023-05-15T23:29:40.119Z,69.65
2023-05-15T23:32:37.591Z,69.60
2023-05-15T23:35:35.299Z,69.60
2023-05-15T23:38:32.690Z,69.58
2023-05-15T23:41:30.495Z,69.57
2023-05-15T23:44:27.961Z,69.60
2023-05-15T23:47:25.568Z,69.60
2023-05-15T23:50:23.339Z,69.60
2023-05-15T23:53:23.556Z,69.61
2023-05-15T23:56:21.259Z,69.61
2023-05-15T23:59:18.655Z,69.65
